Time;durP1;ratioP1;P1;durP2;ratioP2;P2;SDS_P1;SDS_P2;PMS_P1;PMS_P2;Temp;Humidity;BMP_temperature;BMP_pressure;BME280_temperature;BME280_humidity;BME280_pressure;Samples;Min_cycle;Max_cycle;Signal;HPM_P1;HPM_P2
2022/05/09 00:01:58;;;;;;;31.77;7.07;;;;;;;;;;6241207;22;20161;-54
2022/05/09 00:04:24;;;;;;;19.10;5.63;;;;;;;;;;6264720;22;20638;-56
2022/05/09 00:06:49;;;;;;;16.73;5.85;;;;;;;;;;6238984;22;20077;-54
2022/05/09 00:09:16;;;;;;;18.80;5.97;;;;;;;;;;6263390;22;20010;-52
2022/05/09 00:11:41;;;;;;;14.25;5.15;;;;;;;;;;6266548;22;20019;-54
2022/05/09 00:14:07;;;;;;;19.45;5.63;;;;;;;;;;6264799;22;20024;-55
2022/05/09 00:16:35;;;;;;;21.50;6.38;;;;;;;;;;6266635;22;20012;-54
2022/05/09 00:19:03;;;;;;;12.18;5.20;;;;;;;;;;6264825;22;20050;-55
2022/05/09 00:21:30;;;;;;;17.42;5.68;;;;;;;;;;6266397;22;20012;-54
2022/05/09 00:23:56;;;;;;;15.57;5.38;;;;;;;;;;6265220;22;20016;-52
2022/05/09 00:26:22;;;;;;;16.33;5.53;;;;;;;;;;6266038;22;20015;-54
2022/05/09 00:28:47;;;;;;;16.00;5.50;;;;;;;;;;6263992;22;20019;-53
2022/05/09 00:31:13;;;;;;;16.88;6.10;;;;;;;;;;6267080;22;20154;-53
2022/05/09 00:33:39;;;;;;;11.77;5.78;;;;;;;;;;6263791;22;20007;-53
2022/05/09 00:36:05;;;;;;;13.15;5.25;;;;;;;;;;6266749;22;20020;-52
2022/05/09 00:38:30;;;;;;;9.65;4.50;;;;;;;;;;6264578;22;20012;-55
2022/05/09 00:43:39;;;;;;;15.95;5.22;;;;;;;;;;6265241;22;20038;-52
2022/05/09 00:46:05;;;;;;;13.85;5.25;;;;;;;;;;6267341;22;20015;-55
2022/05/09 00:48:30;;;;;;;14.27;4.25;;;;;;;;;;6265536;22;20087;-52
2022/05/09 00:50:55;;;;;;;8.45;4.20;;;;;;;;;;6266541;22;20074;-52
2022/05/09 00:53:21;;;;;;;12.60;4.20;;;;;;;;;;6264899;22;20118;-53
2022/05/09 00:55:49;;;;;;;12.68;3.85;;;;;;;;;;6265761;22;20015;-55
2022/05/09 00:58:14;;;;;;;16.48;4.47;;;;;;;;;;6265230;22;20090;-52
2022/05/09 01:00:42;;;;;;;12.50;3.65;;;;;;;;;;6266969;22;20023;-54
2022/05/09 01:03:09;;;;;;;17.85;3.88;;;;;;;;;;6265184;22;20168;-55
2022/05/09 01:05:36;;;;;;;7.25;3.20;;;;;;;;;;6257993;22;20030;-52
2022/05/09 01:08:01;;;;;;;15.07;4.63;;;;;;;;;;6267410;22;20135;-53
2022/05/09 01:10:29;;;;;;;12.88;3.83;;;;;;;;;;6240358;22;20004;-53
2022/05/09 01:12:55;;;;;;;8.15;2.63;;;;;;;;;;6268116;22;20012;-53
2022/05/09 01:15:20;;;;;;;13.10;4.50;;;;;;;;;;6267807;22;20038;-50
2022/05/09 01:17:46;;;;;;;7.38;3.00;;;;;;;;;;6265924;22;20038;-54
2022/05/09 01:20:11;;;;;;;10.80;3.10;;;;;;;;;;6268967;22;20011;-52
2022/05/09 01:22:38;;;;;;;11.23;2.67;;;;;;;;;;6267290;22;20012;-51
2022/05/09 01:25:06;;;;;;;8.27;3.28;;;;;;;;;;6266581;22;20016;-51
2022/05/09 01:27:32;;;;;;;5.78;2.53;;;;;;;;;;6266215;22;20121;-53
2022/05/09 01:30:04;;;;;;;6.35;2.65;;;;;;;;;;6267190;22;20073;-54
2022/05/09 01:32:40;;;;;;;5.43;2.75;;;;;;;;;;6267216;22;20007;-53
2022/05/09 01:35:28;;;;;;;6.13;2.25;;;;;;;;;;6239519;22;20023;-53
2022/05/09 01:37:59;;;;;;;4.30;2.35;;;;;;;;;;6247921;22;20019;-53
2022/05/09 01:40:24;;;;;;;4.18;2.42;;;;;;;;;;6265121;22;20143;-55
2022/05/09 01:42:50;;;;;;;5.57;1.77;;;;;;;;;;6268894;22;20346;-52
2022/05/09 01:45:15;;;;;;;8.13;2.03;;;;;;;;;;6265875;22;20018;-54
2022/05/09 01:50:24;;;;;;;2.92;2.08;;;;;;;;;;6263324;22;20041;-55
2022/05/09 01:52:50;;;;;;;8.82;1.73;;;;;;;;;;6265420;22;20031;-55
2022/05/09 01:55:15;;;;;;;1.45;1.23;;;;;;;;;;6267534;22;20606;-52
2022/05/09 01:57:40;;;;;;;2.20;1.85;;;;;;;;;;6267152;22;20000;-55
2022/05/09 02:00:07;;;;;;;1.55;1.27;;;;;;;;;;6268111;22;20020;-55
2022/05/09 02:02:32;;;;;;;12.68;2.05;;;;;;;;;;6265765;22;20012;-56
2022/05/09 02:04:57;;;;;;;3.28;0.95;;;;;;;;;;6268037;22;20014;-55
2022/05/09 02:07:23;;;;;;;4.75;1.85;;;;;;;;;;6265979;22;20011;-55
2022/05/09 02:09:49;;;;;;;4.18;1.10;;;;;;;;;;6268434;22;20026;-53
2022/05/09 02:12:14;;;;;;;2.03;1.25;;;;;;;;;;6266012;22;20021;-55
2022/05/09 02:14:40;;;;;;;1.80;1.38;;;;;;;;;;6267217;22;20019;-53
2022/05/09 02:17:06;;;;;;;0.98;0.85;;;;;;;;;;6267046;22;20011;-53
2022/05/09 02:19:32;;;;;;;3.42;1.35;;;;;;;;;;6265454;22;20016;-55
2022/05/09 02:21:57;;;;;;;1.70;0.70;;;;;;;;;;6267332;22;20018;-55
2022/05/09 02:24:22;;;;;;;8.55;1.40;;;;;;;;;;6265538;22;20020;-53
2022/05/09 02:26:48;;;;;;;8.55;1.08;;;;;;;;;;6267796;22;20008;-55
2022/05/09 02:29:13;;;;;;;1.30;0.88;;;;;;;;;;6266968;22;20012;-51
2022/05/09 02:31:39;;;;;;;3.55;1.23;;;;;;;;;;6265548;22;20012;-53
2022/05/09 02:34:04;;;;;;;1.38;1.27;;;;;;;;;;6267116;22;20019;-50
2022/05/09 02:36:29;;;;;;;0.95;0.82;;;;;;;;;;6267650;22;20015;-51
2022/05/09 02:38:54;;;;;;;4.03;0.90;;;;;;;;;;6266736;22;20012;-53
2022/05/09 02:41:22;;;;;;;3.53;0.80;;;;;;;;;;6267270;22;20015;-55
2022/05/09 02:43:47;;;;;;;4.20;0.98;;;;;;;;;;6266234;22;20102;-54
2022/05/09 02:46:12;;;;;;;3.05;1.38;;;;;;;;;;6268438;22;20358;-53
2022/05/09 02:48:37;;;;;;;2.22;1.13;;;;;;;;;;6265396;22;20414;-54
2022/05/09 02:51:04;;;;;;;2.83;1.00;;;;;;;;;;6266868;22;20287;-55
2022/05/09 02:53:30;;;;;;;1.65;1.00;;;;;;;;;;6265127;22;20019;-55
2022/05/09 02:55:55;;;;;;;2.38;1.00;;;;;;;;;;6268051;22;20071;-54
2022/05/09 02:58:20;;;;;;;1.13;1.05;;;;;;;;;;6264393;22;20018;-53
2022/05/09 03:00:46;;;;;;;1.80;1.10;;;;;;;;;;6267710;22;20101;-52
2022/05/09 03:05:56;;;;;;;1.02;0.95;;;;;;;;;;6265582;22;20026;-54
2022/05/09 03:08:21;;;;;;;1.35;1.10;;;;;;;;;;6266501;22;20011;-54
2022/05/09 03:10:47;;;;;;;1.02;1.02;;;;;;;;;;6265921;22;20090;-51
2022/05/09 03:13:12;;;;;;;3.25;1.10;;;;;;;;;;6266669;22;20008;-52
2022/05/09 03:15:39;;;;;;;12.70;1.50;;;;;;;;;;6266197;22;20020;-54
2022/05/09 03:18:05;;;;;;;2.15;1.35;;;;;;;;;;6265725;22;20663;-55
2022/05/09 03:20:30;;;;;;;1.38;1.23;;;;;;;;;;6265409;22;20015;-53
2022/05/09 03:22:55;;;;;;;0.65;0.65;;;;;;;;;;6258861;22;20059;-53
2022/05/09 03:25:21;;;;;;;2.25;1.15;;;;;;;;;;6266485;22;20554;-53
2022/05/09 03:27:46;;;;;;;2.30;1.33;;;;;;;;;;6266280;22;20023;-54
2022/05/09 03:30:12;;;;;;;1.23;1.13;;;;;;;;;;6265942;22;20028;-52
2022/05/09 03:32:39;;;;;;;4.10;1.13;;;;;;;;;;6265445;22;20050;-55
2022/05/09 03:35:04;;;;;;;1.63;0.95;;;;;;;;;;6267117;22;20019;-52
2022/05/09 03:37:30;;;;;;;3.17;1.13;;;;;;;;;;6237597;22;20008;-52
2022/05/09 03:39:55;;;;;;;1.35;1.20;;;;;;;;;;6266822;22;20094;-52
2022/05/09 03:42:21;;;;;;;1.40;1.02;;;;;;;;;;6266197;22;20015;-51
2022/05/09 03:44:46;;;;;;;2.17;0.88;;;;;;;;;;6265686;22;20011;-54
2022/05/09 03:47:11;;;;;;;3.70;1.30;;;;;;;;;;6266886;22;20110;-53
2022/05/09 03:49:36;;;;;;;2.03;1.00;;;;;;;;;;6265418;22;20022;-49
2022/05/09 03:52:02;;;;;;;1.70;0.80;;;;;;;;;;6265589;22;20043;-54
2022/05/09 03:54:27;;;;;;;4.63;1.00;;;;;;;;;;6263874;22;20026;-52
2022/05/09 03:56:52;;;;;;;1.67;1.20;;;;;;;;;;6238323;22;20008;-54
2022/05/09 03:59:18;;;;;;;1.10;1.08;;;;;;;;;;6266170;22;20035;-54
2022/05/09 04:01:43;;;;;;;1.67;1.15;;;;;;;;;;6265443;22;20028;-53
2022/05/09 04:04:08;;;;;;;1.58;1.00;;;;;;;;;;6267303;22;20008;-55
2022/05/09 04:06:34;;;;;;;0.88;0.80;;;;;;;;;;6265212;22;20004;-54
2022/05/09 04:08:59;;;;;;;1.00;0.90;;;;;;;;;;6266883;22;20019;-52
2022/05/09 04:11:24;;;;;;;2.83;1.30;;;;;;;;;;6264253;22;20011;-54
2022/05/09 04:13:49;;;;;;;0.88;0.88;;;;;;;;;;6267917;22;20083;-55
2022/05/09 04:18:59;;;;;;;3.00;1.20;;;;;;;;;;6266844;22;20023;-53
2022/05/09 04:21:25;;;;;;;1.10;0.52;;;;;;;;;;6265074;22;20019;-56
2022/05/09 04:23:53;;;;;;;2.30;0.82;;;;;;;;;;6267111;22;20023;-56
2022/05/09 04:26:18;;;;;;;1.35;0.90;;;;;;;;;;6265661;22;20015;-55
2022/05/09 04:28:44;;;;;;;1.48;0.90;;;;;;;;;;6266501;22;20011;-56
2022/05/09 04:31:09;;;;;;;2.08;1.13;;;;;;;;;;6266600;22;20011;-54
2022/05/09 04:33:34;;;;;;;1.00;0.90;;;;;;;;;;6265164;22;20027;-54
2022/05/09 04:36:00;;;;;;;1.52;1.23;;;;;;;;;;6264856;22;20047;-54
2022/05/09 04:38:26;;;;;;;0.90;0.77;;;;;;;;;;6265833;22;20019;-53
2022/05/09 04:40:54;;;;;;;2.00;1.00;;;;;;;;;;6265771;22;20057;-54
2022/05/09 04:43:20;;;;;;;3.67;1.10;;;;;;;;;;6266439;22;20003;-53
2022/05/09 04:45:45;;;;;;;1.27;0.80;;;;;;;;;;6265921;22;20019;-54
2022/05/09 04:48:10;;;;;;;2.65;1.38;;;;;;;;;;6266298;22;20012;-52
2022/05/09 04:50:36;;;;;;;5.90;1.73;;;;;;;;;;6265514;22;20020;-55
2022/05/09 04:53:02;;;;;;;2.05;1.05;;;;;;;;;;6265944;22;20050;-54
2022/05/09 04:55:27;;;;;;;1.58;1.15;;;;;;;;;;6265769;22;20030;-54
2022/05/09 04:57:52;;;;;;;2.60;1.45;;;;;;;;;;6267251;22;20015;-54
2022/05/09 05:00:20;;;;;;;1.00;0.95;;;;;;;;;;6265342;22;20437;-51
2022/05/09 05:02:45;;;;;;;0.40;0.40;;;;;;;;;;6266620;22;20018;-55
2022/05/09 05:05:10;;;;;;;1.10;0.65;;;;;;;;;;6266208;22;20016;-56
2022/05/09 05:07:36;;;;;;;0.22;0.22;;;;;;;;;;6266113;22;20000;-54
2022/05/09 05:10:01;;;;;;;0.60;0.60;;;;;;;;;;6266264;22;20036;-56
2022/05/09 05:12:27;;;;;;;0.80;0.60;;;;;;;;;;6265456;22;20011;-55
2022/05/09 05:14:52;;;;;;;0.50;0.50;;;;;;;;;;6266350;22;20019;-53
2022/05/09 05:17:17;;;;;;;0.90;0.90;;;;;;;;;;6265557;22;20012;-53
2022/05/09 05:19:44;;;;;;;0.77;0.75;;;;;;;;;;6264977;22;20020;-55
2022/05/09 05:22:12;;;;;;;0.43;0.43;;;;;;;;;;6266517;22;20012;-55
2022/05/09 05:24:37;;;;;;;1.27;0.95;;;;;;;;;;6266134;22;20016;-54
2022/05/09 05:27:05;;;;;;;1.70;0.70;;;;;;;;;;6264754;22;20015;-54
2022/05/09 05:29:31;;;;;;;1.80;1.00;;;;;;;;;;6265314;22;20112;-54
2022/05/09 05:31:56;;;;;;;1.23;1.13;;;;;;;;;;6265694;22;20605;-51
2022/05/09 05:34:22;;;;;;;0.80;0.77;;;;;;;;;;6263641;22;20023;-54
2022/05/09 05:36:50;;;;;;;1.52;0.85;;;;;;;;;;6266076;22;20035;-50
2022/05/09 05:39:16;;;;;;;2.65;1.35;;;;;;;;;;6265092;22;20027;-54
2022/05/09 05:41:42;;;;;;;1.85;0.95;;;;;;;;;;6267065;22;20011;-53
2022/05/09 05:44:11;;;;;;;1.75;1.00;;;;;;;;;;6265811;22;20007;-52
2022/05/09 05:46:36;;;;;;;1.45;1.10;;;;;;;;;;6266007;22;20382;-55
2022/05/09 05:49:02;;;;;;;1.77;0.88;;;;;;;;;;6265193;22;20012;-55
2022/05/09 05:51:27;;;;;;;0.98;0.90;;;;;;;;;;6265388;22;20111;-52
2022/05/09 05:53:54;;;;;;;0.80;0.68;;;;;;;;;;6266584;22;20008;-53
2022/05/09 05:56:19;;;;;;;0.60;0.60;;;;;;;;;;6267449;22;20019;-49
2022/05/09 05:58:44;;;;;;;2.90;2.25;;;;;;;;;;6267726;22;20031;-54
2022/05/09 06:01:10;;;;;;;1.50;0.73;;;;;;;;;;6268470;22;21056;-52
2022/05/09 06:03:35;;;;;;;0.60;0.60;;;;;;;;;;6239995;22;20626;-53
2022/05/09 06:06:00;;;;;;;0.32;0.32;;;;;;;;;;6240733;22;20042;-52
2022/05/09 06:08:25;;;;;;;0.65;0.57;;;;;;;;;;6266520;22;20047;-54
2022/05/09 06:10:51;;;;;;;0.30;0.30;;;;;;;;;;6267898;22;20115;-55
2022/05/09 06:13:16;;;;;;;1.02;0.63;;;;;;;;;;6266750;22;20011;-54
2022/05/09 06:15:42;;;;;;;0.90;0.88;;;;;;;;;;6266596;22;20034;-52
2022/05/09 06:18:08;;;;;;;1.00;0.40;;;;;;;;;;6267435;22;20098;-51
2022/05/09 06:20:34;;;;;;;0.88;0.47;;;;;;;;;;6266705;22;20012;-54
2022/05/09 06:23:00;;;;;;;0.50;0.50;;;;;;;;;;6266965;22;20023;-56
2022/05/09 06:25:27;;;;;;;0.40;0.35;;;;;;;;;;6266238;22;20019;-55
2022/05/09 06:27:52;;;;;;;1.50;0.60;;;;;;;;;;6268167;22;20061;-55
2022/05/09 06:30:19;;;;;;;0.60;0.60;;;;;;;;;;6266195;22;20091;-55
2022/05/09 06:32:44;;;;;;;0.50;0.50;;;;;;;;;;6267178;22;20015;-54
2022/05/09 06:35:11;;;;;;;0.90;0.30;;;;;;;;;;6268303;22;20026;-51
2022/05/09 06:37:38;;;;;;;0.10;0.10;;;;;;;;;;6239677;22;20035;-52
2022/05/09 06:40:04;;;;;;;1.98;0.50;;;;;;;;;;6267570;22;20092;-52
2022/05/09 06:42:29;;;;;;;3.58;1.00;;;;;;;;;;6266744;22;20015;-54
2022/05/09 06:44:55;;;;;;;0.60;0.60;;;;;;;;;;6268186;22;20382;-56
2022/05/09 06:47:20;;;;;;;1.23;0.65;;;;;;;;;;6265961;22;20072;-56
2022/05/09 06:49:45;;;;;;;0.52;0.52;;;;;;;;;;6267737;22;20012;-55
2022/05/09 06:52:11;;;;;;;1.00;0.90;;;;;;;;;;6266755;22;20024;-54
2022/05/09 06:54:37;;;;;;;0.35;0.30;;;;;;;;;;6267543;22;20023;-52
2022/05/09 06:57:02;;;;;;;0.50;0.35;;;;;;;;;;6264985;22;20023;-54
2022/05/09 06:59:27;;;;;;;0.43;0.28;;;;;;;;;;6264529;22;20157;-54
2022/05/09 07:01:52;;;;;;;1.90;1.27;;;;;;;;;;6267624;22;20386;-56
2022/05/09 07:04:18;;;;;;;0.77;0.55;;;;;;;;;;6264310;22;20334;-54
2022/05/09 07:06:43;;;;;;;0.73;0.50;;;;;;;;;;6237996;22;20012;-54
2022/05/09 07:09:12;;;;;;;1.60;0.85;;;;;;;;;;6266973;22;20015;-54
2022/05/09 07:11:38;;;;;;;0.63;0.22;;;;;;;;;;6263992;22;20016;-53
2022/05/09 07:14:04;;;;;;;0.50;0.40;;;;;;;;;;6265339;22;20022;-52
2022/05/09 07:16:29;;;;;;;0.57;0.52;;;;;;;;;;6266956;22;20008;-54
2022/05/09 07:18:54;;;;;;;0.28;0.25;;;;;;;;;;6265539;22;20015;-54
2022/05/09 07:21:20;;;;;;;0.50;0.50;;;;;;;;;;6266602;22;20015;-55
2022/05/09 07:23:45;;;;;;;0.17;0.17;;;;;;;;;;6264522;22;20019;-51
2022/05/09 07:26:10;;;;;;;0.82;0.82;;;;;;;;;;6267644;22;20034;-56
2022/05/09 07:28:36;;;;;;;0.68;0.50;;;;;;;;;;6264781;22;20011;-53
2022/05/09 07:31:01;;;;;;;0.60;0.50;;;;;;;;;;6266722;22;20007;-52
2022/05/09 07:33:28;;;;;;;0.70;0.52;;;;;;;;;;6259015;22;20083;-55
2022/05/09 07:35:53;;;;;;;0.93;0.88;;;;;;;;;;6230271;22;20571;-54
2022/05/09 07:38:18;;;;;;;0.32;0.28;;;;;;;;;;6262566;22;20072;-53
2022/05/09 07:40:45;;;;;;;0.65;0.47;;;;;;;;;;6261344;22;20023;-54
2022/05/09 07:43:12;;;;;;;0.50;0.50;;;;;;;;;;6263070;22;20020;-56
2022/05/09 07:45:37;;;;;;;0.63;0.52;;;;;;;;;;6233686;22;20008;-55
2022/05/09 07:48:03;;;;;;;0.63;0.63;;;;;;;;;;6261753;22;20016;-55
2022/05/09 07:50:29;;;;;;;1.48;0.82;;;;;;;;;;6262309;22;20027;-53
2022/05/09 07:52:54;;;;;;;0.30;0.30;;;;;;;;;;6262091;22;20480;-59
2022/05/09 07:55:19;;;;;;;2.72;0.40;;;;;;;;;;6260592;22;20019;-55
2022/05/09 07:57:44;;;;;;;0.75;0.75;;;;;;;;;;6261967;22;20023;-54
2022/05/09 08:00:10;;;;;;;0.40;0.40;;;;;;;;;;6262157;22;20020;-55
2022/05/09 08:02:39;;;;;;;0.50;0.50;;;;;;;;;;6262035;22;20338;-56
2022/05/09 08:05:05;;;;;;;0.95;0.90;;;;;;;;;;6257764;22;20414;-54
2022/05/09 08:07:31;;;;;;;0.68;0.68;;;;;;;;;;6262740;22;20016;-54
2022/05/09 08:09:56;;;;;;;4.63;0.68;;;;;;;;;;6261664;22;20524;-56
2022/05/09 08:12:22;;;;;;;1.67;1.33;;;;;;;;;;6256831;22;20015;-55
2022/05/09 08:14:47;;;;;;;1.45;0.65;;;;;;;;;;6259643;22;20027;-54
2022/05/09 08:17:13;;;;;;;0.73;0.68;;;;;;;;;;6263359;22;20034;-55
2022/05/09 08:19:39;;;;;;;0.40;0.40;;;;;;;;;;6264261;22;20018;-55
2022/05/09 08:22:04;;;;;;;1.50;0.60;;;;;;;;;;6266095;22;20050;-52
2022/05/09 08:24:30;;;;;;;0.88;0.70;;;;;;;;;;6265144;22;20011;-55
2022/05/09 08:26:55;;;;;;;0.60;0.60;;;;;;;;;;6266873;22;20011;-55
2022/05/09 08:29:21;;;;;;;1.08;1.08;;;;;;;;;;6258816;22;20012;-54
2022/05/09 08:31:46;;;;;;;0.70;0.60;;;;;;;;;;6264548;22;20187;-54
2022/05/09 08:34:11;;;;;;;1.42;0.77;;;;;;;;;;6238858;22;20020;-56
2022/05/09 08:36:45;;;;;;;0.70;0.60;;;;;;;;;;6265933;22;20007;-56
2022/05/09 08:39:11;;;;;;;0.90;0.85;;;;;;;;;;6266054;22;20039;-54
2022/05/09 08:41:37;;;;;;;1.95;1.00;;;;;;;;;;6265877;22;20008;-54
2022/05/09 08:44:05;;;;;;;2.15;1.10;;;;;;;;;;6263170;22;20080;-55
2022/05/09 08:46:38;;;;;;;1.73;1.13;;;;;;;;;;6263085;22;20023;-54
2022/05/09 08:49:06;;;;;;;1.35;0.82;;;;;;;;;;6266591;22;20018;-53
2022/05/09 08:51:34;;;;;;;1.52;1.35;;;;;;;;;;6236713;22;20031;-54
2022/05/09 08:54:03;;;;;;;3.80;1.25;;;;;;;;;;6267223;22;20007;-56
2022/05/09 08:56:28;;;;;;;2.95;1.77;;;;;;;;;;6264696;22;20015;-55
2022/05/09 08:59:02;;;;;;;0.80;0.80;;;;;;;;;;6263817;22;20012;-56
2022/05/09 09:01:33;;;;;;;2.42;1.13;;;;;;;;;;6263311;22;20020;-54
2022/05/09 09:03:59;;;;;;;1.00;0.90;;;;;;;;;;6239207;22;20008;-54
2022/05/09 09:06:37;;;;;;;3.00;1.08;;;;;;;;;;6264971;22;20015;-56
2022/05/09 09:09:18;;;;;;;2.30;1.38;;;;;;;;;;6264644;22;20286;-54
2022/05/09 09:11:43;;;;;;;2.85;1.50;;;;;;;;;;6265135;22;20011;-54
2022/05/09 09:14:20;;;;;;;3.03;1.55;;;;;;;;;;6264213;22;20019;-52
2022/05/09 09:16:48;;;;;;;2.53;1.95;;;;;;;;;;6266159;22;20450;-53
2022/05/09 09:19:29;;;;;;;6.45;1.42;;;;;;;;;;6263968;22;20310;-54
2022/05/09 09:22:00;;;;;;;3.75;1.90;;;;;;;;;;6239262;22;20008;-54
2022/05/09 09:24:25;;;;;;;1.17;1.13;;;;;;;;;;6263921;22;20016;-53
2022/05/09 09:26:56;;;;;;;1.93;1.17;;;;;;;;;;6267047;22;20038;-54
2022/05/09 09:29:28;;;;;;;2.67;1.77;;;;;;;;;;6265771;22;20225;-55
2022/05/09 09:32:02;;;;;;;2.05;1.15;;;;;;;;;;6267668;22;20099;-55
2022/05/09 09:34:34;;;;;;;2.60;1.38;;;;;;;;;;6240044;22;20019;-54
2022/05/09 09:37:16;;;;;;;2.35;1.77;;;;;;;;;;6268246;22;20027;-55
2022/05/09 09:39:42;;;;;;;3.00;1.27;;;;;;;;;;6268774;22;20126;-52
2022/05/09 09:42:07;;;;;;;2.20;1.60;;;;;;;;;;6266870;22;20011;-55
2022/05/09 09:44:34;;;;;;;2.40;1.88;;;;;;;;;;6268467;22;20089;-53
2022/05/09 09:47:08;;;;;;;3.22;1.35;;;;;;;;;;6267283;22;20533;-54
2022/05/09 09:49:35;;;;;;;4.40;2.50;;;;;;;;;;6241472;22;20011;-53
2022/05/09 09:52:01;;;;;;;5.20;2.72;;;;;;;;;;6239844;22;20024;-55
2022/05/09 09:54:28;;;;;;;4.38;2.15;;;;;;;;;;6267150;22;20020;-54
2022/05/09 09:56:54;;;;;;;2.20;1.70;;;;;;;;;;6267814;22;20015;-53
2022/05/09 09:59:21;;;;;;;4.72;2.03;;;;;;;;;;6267458;22;20020;-56
2022/05/09 10:02:05;;;;;;;5.18;1.95;;;;;;;;;;6267126;22;20014;-55
2022/05/09 10:04:31;;;;;;;4.28;2.47;;;;;;;;;;6268457;22;20015;-55
2022/05/09 10:07:02;;;;;;;2.80;2.00;;;;;;;;;;6267844;22;20018;-54
2022/05/09 10:09:38;;;;;;;5.13;2.42;;;;;;;;;;6267546;22;20011;-52
2022/05/09 10:12:33;;;;;;;3.83;1.58;;;;;;;;;;6264230;22;20050;-55
2022/05/09 10:14:58;;;;;;;1.50;1.40;;;;;;;;;;6227249;22;20023;-55
2022/05/09 10:17:26;;;;;;;2.13;1.65;;;;;;;;;;6266458;22;20007;-54
2022/05/09 10:19:53;;;;;;;5.65;2.60;;;;;;;;;;6265825;22;20061;-54
2022/05/09 10:25:11;;;;;;;1.75;1.13;;;;;;;;;;6267773;22;20046;-53
2022/05/09 10:27:37;;;;;;;5.20;2.22;;;;;;;;;;6267518;22;20012;-54
2022/05/09 10:30:06;;;;;;;2.58;1.90;;;;;;;;;;6266942;22;20015;-55
2022/05/09 10:32:51;;;;;;;2.93;2.03;;;;;;;;;;6265654;22;20011;-53
2022/05/09 10:35:22;;;;;;;2.38;1.83;;;;;;;;;;6260500;22;20249;-54
2022/05/09 10:37:57;;;;;;;2.83;1.98;;;;;;;;;;6260309;22;20015;-58
2022/05/09 10:40:30;;;;;;;3.00;2.20;;;;;;;;;;6265708;22;20015;-55
2022/05/09 10:43:06;;;;;;;3.38;1.85;;;;;;;;;;6266312;22;20022;-54
2022/05/09 10:45:38;;;;;;;5.35;2.70;;;;;;;;;;6265894;22;20007;-52
2022/05/09 10:48:22;;;;;;;3.38;2.03;;;;;;;;;;6263139;22;20443;-56
2022/05/09 10:50:59;;;;;;;3.40;1.63;;;;;;;;;;6262549;22;20020;-54
2022/05/09 10:53:43;;;;;;;3.63;2.20;;;;;;;;;;6260561;22;20046;-55
2022/05/09 10:56:24;;;;;;;1.25;0.95;;;;;;;;;;6268288;22;20744;-54
2022/05/09 10:58:52;;;;;;;2.75;1.90;;;;;;;;;;6265638;22;20022;-52
2022/05/09 11:01:29;;;;;;;3.85;2.45;;;;;;;;;;6266915;22;20453;-52
2022/05/09 11:03:55;;;;;;;5.15;3.25;;;;;;;;;;6266487;22;20011;-55
2022/05/09 11:06:20;;;;;;;4.95;2.53;;;;;;;;;;6266677;22;20037;-55
2022/05/09 11:08:57;;;;;;;3.95;2.10;;;;;;;;;;6263528;22;20235;-55
2022/05/09 11:11:26;;;;;;;4.32;2.35;;;;;;;;;;6264551;22;20012;-54
2022/05/09 11:13:54;;;;;;;1.63;1.45;;;;;;;;;;6266449;22;20018;-54
2022/05/09 11:16:36;;;;;;;2.22;1.88;;;;;;;;;;6264768;22;20091;-55
2022/05/09 11:19:20;;;;;;;3.75;1.45;;;;;;;;;;6266808;22;20030;-52
2022/05/09 11:22:12;;;;;;;3.80;2.05;;;;;;;;;;6260191;22;20065;-56
2022/05/09 11:24:40;;;;;;;1.75;1.58;;;;;;;;;;6256562;22;20019;-55
2022/05/09 11:27:11;;;;;;;3.35;1.65;;;;;;;;;;6264753;22;20083;-53
2022/05/09 11:29:46;;;;;;;4.57;2.00;;;;;;;;;;6264996;22;20000;-54
2022/05/09 11:32:30;;;;;;;4.38;2.10;;;;;;;;;;6266969;22;20015;-55
2022/05/09 11:35:13;;;;;;;1.30;1.20;;;;;;;;;;6266110;22;20027;-55
2022/05/09 11:37:45;;;;;;;2.45;1.40;;;;;;;;;;6265184;22;20842;-55
2022/05/09 11:40:27;;;;;;;2.13;1.73;;;;;;;;;;6267285;22;20007;-54
2022/05/09 11:45:42;;;;;;;1.75;1.40;;;;;;;;;;6264908;22;20511;-55
2022/05/09 11:48:15;;;;;;;3.07;2.00;;;;;;;;;;6266761;22;20032;-55
2022/05/09 11:50:52;;;;;;;3.65;1.80;;;;;;;;;;6264486;22;20406;-54
2022/05/09 11:53:18;;;;;;;5.00;2.13;;;;;;;;;;6264327;22;20453;-56
2022/05/09 11:55:44;;;;;;;1.20;1.10;;;;;;;;;;6235696;22;20050;-56
2022/05/09 11:58:10;;;;;;;2.15;1.70;;;;;;;;;;6267583;22;20512;-55
2022/05/09 12:00:38;;;;;;;2.55;1.10;;;;;;;;;;6264909;22;20059;-54
2022/05/09 12:03:09;;;;;;;1.50;1.20;;;;;;;;;;6267338;22;20022;-56
2022/05/09 12:05:35;;;;;;;4.20;2.00;;;;;;;;;;6260489;22;20007;-56
2022/05/09 12:08:04;;;;;;;2.00;1.15;;;;;;;;;;6262967;22;20026;-57
2022/05/09 12:10:35;;;;;;;1.27;1.17;;;;;;;;;;6260594;22;20012;-57
2022/05/09 12:13:04;;;;;;;1.40;0.90;;;;;;;;;;6262470;22;20169;-55
2022/05/09 12:15:30;;;;;;;;;;;;;;;;;;6235191;22;20034;-56
2022/05/09 12:17:58;;;;;;;2.88;0.75;;;;;;;;;;6260743;22;19981;-56
2022/05/09 12:20:29;;;;;;;2.92;1.73;;;;;;;;;;6234701;22;20024;-56
2022/05/09 12:23:09;;;;;;;1.15;1.05;;;;;;;;;;6260425;22;20016;-57
2022/05/09 12:28:19;;;;;;;3.47;1.70;;;;;;;;;;6263318;22;20046;-57
2022/05/09 12:30:46;;;;;;;2.78;1.60;;;;;;;;;;6259302;22;20312;-57
2022/05/09 12:33:11;;;;;;;2.53;1.95;;;;;;;;;;6262817;22;20050;-56
2022/05/09 12:35:36;;;;;;;2.15;1.52;;;;;;;;;;6233832;22;20031;-54
2022/05/09 12:38:02;;;;;;;3.50;1.50;;;;;;;;;;6232844;22;20016;-56
2022/05/09 12:40:29;;;;;;;2.75;1.70;;;;;;;;;;6260350;22;20015;-56
2022/05/09 12:42:58;;;;;;;3.53;1.85;;;;;;;;;;6265185;22;20016;-57
2022/05/09 12:45:24;;;;;;;2.38;2.00;;;;;;;;;;6263884;22;20444;-53
2022/05/09 12:47:49;;;;;;;2.05;1.73;;;;;;;;;;6238730;22;20027;-55
2022/05/09 12:50:29;;;;;;;5.18;1.98;;;;;;;;;;6264166;22;20012;-56
2022/05/09 12:52:54;;;;;;;;;;;;;;;;;;6266674;22;20082;-54
2022/05/09 12:58:40;;;;;;;2.42;1.20;;;;;;;;;;6265249;22;20095;-53
2022/05/09 13:01:13;;;;;;;1.98;1.50;;;;;;;;;;6234183;22;20042;-56
2022/05/09 13:03:49;;;;;;;2.95;1.48;;;;;;;;;;6268056;22;20536;-56
2022/05/09 13:06:16;;;;;;;1.48;1.35;;;;;;;;;;6268103;22;20022;-57
2022/05/09 13:08:42;;;;;;;1.88;1.73;;;;;;;;;;6270119;22;20011;-56
2022/05/09 13:11:14;;;;;;;4.80;2.10;;;;;;;;;;6268203;22;20027;-56
2022/05/09 13:13:41;;;;;;;1.45;1.23;;;;;;;;;;6270778;22;20027;-53
2022/05/09 13:16:08;;;;;;;2.92;2.13;;;;;;;;;;6267805;22;20075;-56
2022/05/09 13:18:34;;;;;;;2.47;1.73;;;;;;;;;;6269493;22;20027;-56
2022/05/09 13:21:02;;;;;;;2.35;1.45;;;;;;;;;;6268648;22;20011;-57
2022/05/09 13:23:30;;;;;;;2.15;1.50;;;;;;;;;;6268552;22;20016;-56
2022/05/09 13:26:00;;;;;;;2.97;1.83;;;;;;;;;;6268397;22;20022;-57
2022/05/09 13:28:28;;;;;;;1.40;1.27;;;;;;;;;;6263229;22;20008;-57
2022/05/09 13:30:54;;;;;;;4.00;1.10;;;;;;;;;;6268454;22;20016;-56
2022/05/09 13:33:21;;;;;;;2.47;0.93;;;;;;;;;;6241250;22;20046;-56
2022/05/09 13:35:49;;;;;;;1.80;1.63;;;;;;;;;;6268797;22;20047;-56
2022/05/09 13:38:20;;;;;;;2.08;1.33;;;;;;;;;;6269141;22;20046;-57
2022/05/09 13:40:46;;;;;;;1.42;1.33;;;;;;;;;;6268344;22;20586;-56
2022/05/09 13:43:14;;;;;;;0.38;0.35;;;;;;;;;;6269797;22;20027;-54
2022/05/09 13:45:40;;;;;;;0.98;0.93;;;;;;;;;;6268555;22;20018;-53
2022/05/09 13:48:07;;;;;;;0.57;0.57;;;;;;;;;;6269084;22;20373;-55
2022/05/09 13:50:39;;;;;;;6.90;0.55;;;;;;;;;;6268210;22;20696;-56
2022/05/09 13:53:10;;;;;;;0.70;0.60;;;;;;;;;;6267131;22;20015;-54
2022/05/09 13:55:40;;;;;;;0.65;0.65;;;;;;;;;;6267949;22;20030;-56
2022/05/09 13:58:07;;;;;;;0.88;0.60;;;;;;;;;;6269207;22;20026;-54
2022/05/09 14:00:35;;;;;;;1.30;0.98;;;;;;;;;;6267959;22;20012;-56
2022/05/09 14:03:05;;;;;;;2.67;1.55;;;;;;;;;;6266540;22;20453;-57
2022/05/09 14:05:32;;;;;;;0.88;0.82;;;;;;;;;;6268973;22;20019;-57
2022/05/09 14:07:59;;;;;;;1.45;1.05;;;;;;;;;;6266655;22;20025;-55
2022/05/09 14:10:29;;;;;;;2.13;0.90;;;;;;;;;;6267883;22;20012;-57
2022/05/09 14:12:57;;;;;;;2.92;1.13;;;;;;;;;;6264847;22;20016;-56
2022/05/09 14:15:23;;;;;;;1.30;0.80;;;;;;;;;;6266875;22;20022;-55
2022/05/09 14:18:01;;;;;;;1.63;0.93;;;;;;;;;;6266808;22;20429;-54
2022/05/09 14:20:33;;;;;;;0.68;0.68;;;;;;;;;;6240188;22;20012;-56
2022/05/09 14:22:59;;;;;;;1.23;1.02;;;;;;;;;;6267823;22;20016;-55
2022/05/09 14:31:18;;;;;;;1.40;1.00;;;;;;;;;;6266100;22;20019;-56
2022/05/09 14:33:45;;;;;;;1.88;1.05;;;;;;;;;;6267608;22;20329;-57
2022/05/09 14:36:30;;;;;;;1.27;0.80;;;;;;;;;;6268608;22;20020;-57
2022/05/09 14:38:57;;;;;;;1.52;1.05;;;;;;;;;;6259784;22;20023;-55
2022/05/09 14:41:37;;;;;;;1.45;0.95;;;;;;;;;;6265037;22;20015;-55
2022/05/09 14:44:10;;;;;;;2.20;1.17;;;;;;;;;;6265968;22;20011;-55
2022/05/09 14:47:01;;;;;;;1.67;1.10;;;;;;;;;;6267629;22;20012;-54
2022/05/09 14:49:27;;;;;;;0.68;0.65;;;;;;;;;;6208324;22;20015;-55
2022/05/09 14:52:06;;;;;;;3.40;1.15;;;;;;;;;;6266136;22;20186;-56
2022/05/09 14:54:40;;;;;;;1.83;1.65;;;;;;;;;;6265471;22;20015;-56
2022/05/09 14:59:50;;;;;;;0.73;0.73;;;;;;;;;;6266674;22;20038;-53
2022/05/09 15:02:20;;;;;;;1.10;1.02;;;;;;;;;;6264701;22;20016;-55
2022/05/09 15:04:46;;;;;;;2.22;1.27;;;;;;;;;;6265730;22;20020;-56
2022/05/09 15:07:11;;;;;;;2.33;1.27;;;;;;;;;;6267554;22;20035;-56
2022/05/09 15:09:37;;;;;;;1.52;1.13;;;;;;;;;;6265204;22;20003;-55
2022/05/09 15:12:10;;;;;;;2.35;1.20;;;;;;;;;;6262819;22;20016;-56
2022/05/09 15:14:36;;;;;;;1.40;0.93;;;;;;;;;;6257664;22;20082;-54
2022/05/09 15:17:01;;;;;;;1.40;1.00;;;;;;;;;;6266453;22;20046;-56
2022/05/09 15:19:29;;;;;;;3.88;1.25;;;;;;;;;;6263594;22;20007;-54